KNEW/NEW METAR and TAF weather

Enter ICAO airport designator
Station Type Date Time Source
KNEW METAR 2021/07/29 17:14 UTC NOAA

KNEW 291714Z 35006KT 10SM VCTS CLR 33/26 A3005 RMK AO2 LTG DSNT S AND SW T03330256


Station Type Date Time Source
KNEW Decoded METAR 2021/07/29 17:14 UTC NOAA

NEW ORLEANS LAKEFRONT AIRPORT , LA, United States (KNEW) 30-03N 90-02W 3M
Jul 29, 2021 - 01:14 PM EDT / 2021.07.29 1714 UTC
Wind: from the N (350 degrees) at 7 MPH (6 KT):0
Visibility: 10 mile(s):0
Sky conditions: clear
Weather: thunder in the vicinity; Lightning observed
Temperature: 91.9 F (33.3 C)
Heat index: 107.2 F (41.8 C):1
Dew Point: 78.1 F (25.6 C)
Relative Humidity: 64%
Pressure (altimeter): 30.05 in. Hg (1017 hPa)
ob: KNEW 291714Z 35006KT 10SM VCTS CLR 33/26 A3005 RMK AO2 LTG DSNT S AND SW T03330256
cycle: 17

Station Type Date Time Source
KNEW TAF 2021/07/29 18:22 UTC NOAA

TAF KNEW 291720Z 2918/3018 VRB04KT P6SM VCTS BKN100CB
FM292300 25005KT P6SM BKN110
FM300900 28005KT P6SM FEW250
FM301400 31007KT P6SM FEW110

Example: see airport list